Ferry Katsuragi — JI3611 — position and weather

sailwx.info

Track history (hours):
 
Tides and Currents Weather Stations Pressure Air Temp Water Temp Dewpoint Dewpoint Depression Visibility Wind Speed Wind Dir Waves Ship Positions

Ferry Katsuragi

Last reported at 2018-Feb-24 10:00 UTC. Time now 2018-Feb-24 10:12 UTC.
Position N 34°13' E 135°09'.

Length 108 m; draft 4 m.

Type: Passenger vessel. MMSI: 431301245.

Date/timePositionNaut miles runAvg speedWind from/ knotsBaromVisibWave heightAir tempDewpointWater temp
2018-Feb-24 10:00N 34°13' E 135°09'0 0.1
2018-Feb-24 09:31N 34°13' E 135°09'714.1
2018-Feb-24 09:00N 34°11' E 135°00'916.7
2018-Feb-24 08:30N 34°08' E 134°51'1016.8
2018-Feb-24 07:55N 34°04' E 134°40'3 3.0
2018-Feb-24 06:46N 34°03' E 134°36'413.5
2018-Feb-24 06:29N 34°04' E 134°40'714.2
2018-Feb-24 06:00N 34°07' E 134°48'714.4
2018-Feb-24 05:30N 34°10' E 134°56'714.0
2018-Feb-24 05:01N 34°12' E 135°04'4 8.1
2018-Feb-24 04:30N 34°13' E 135°09'0 0.1
2018-Feb-24 04:01N 34°13' E 135°09'714.0
2018-Feb-24 03:30N 34°11' E 135°00'816.7
2018-Feb-24 03:00N 34°08' E 134°51'1316.4
2018-Feb-24 02:13N 34°03' E 134°37'1 1.7
2018-Feb-24 01:25N 34°03' E 134°35'614.0
2018-Feb-24 01:00N 34°05' E 134°42'816.0
2018-Feb-24 00:30N 34°08' E 134°51'816.1
2018-Feb-24 00:00N 34°11' E 134°60'815.2
2018-Feb-23 23:30N 34°13' E 135°09'0 0.0
2018-Feb-23 23:00N 34°13' E 135°09'3 6.6
2018-Feb-23 22:31N 34°12' E 135°05'714.4
2018-Feb-23 22:01N 34°09' E 134°57'814.7
2018-Feb-23 21:30N 34°06' E 134°48'814.8
2018-Feb-23 20:58N 34°04' E 134°39'4 3.4
2018-Feb-23 19:53N 34°03' E 134°35'511.8
2018-Feb-23 19:30N 34°04' E 134°40'713.6
2018-Feb-23 19:00N 34°07' E 134°48'713.7
2018-Feb-23 18:30N 34°09' E 134°56'714.1
2018-Feb-23 18:01N 34°12' E 135°03'4 8.8
2018-Feb-23 17:30N 34°13' E 135°09'0 0.0
2018-Feb-23 17:01N 34°13' E 135°09'0 0.0
2018-Feb-23 16:30N 34°13' E 135°09'0 0.0
2018-Feb-23 16:00N 34°13' E 135°09'0 0.0
2018-Feb-23 15:30N 34°13' E 135°09'0 0.8
2018-Feb-23 15:01N 34°13' E 135°08'713.6
2018-Feb-23 14:30N 34°11' E 135°00'714.2
2018-Feb-23 14:00N 34°08' E 134°52'714.4
2018-Feb-23 13:29N 34°05' E 134°44'8 6.7
2018-Feb-23 12:22N 34°03' E 134°35'512.7
2018-Feb-23 12:00N 34°04' E 134°41'714.5
2018-Feb-23 11:30N 34°07' E 134°49'714.8
2018-Feb-23 11:01N 34°10' E 134°57'714.1
2018-Feb-23 10:31N 34°12' E 135°05'3 6.6
2018-Feb-23 10:00N 34°13' E 135°09'0 0.1
2018-Feb-23 09:30N 34°13' E 135°09'714.8
2018-Feb-23 09:00N 34°10' E 135°00'816.2
2018-Feb-23 08:30N 34°06' E 134°52'1216.0
2018-Feb-23 07:46N 34°03' E 134°38'2 2.4
2018-Feb-23 06:53N 34°03' E 134°35'412.1
2018-Feb-23 06:30N 34°04' E 134°41'714.1
2018-Feb-23 06:00N 34°07' E 134°48'714.1
2018-Feb-23 05:31N 34°09' E 134°56'713.8
2018-Feb-23 05:01N 34°11' E 135°04'4 8.2
2018-Feb-23 04:31N 34°13' E 135°09'0 0.1
2018-Feb-23 04:00N 34°13' E 135°09'714.3
2018-Feb-23 03:30N 34°10' E 135°01'917.3
2018-Feb-23 03:00N 34°07' E 134°51'13 8.1
2018-Feb-23 01:23N 34°03' E 134°36'614.9
2018-Feb-23 01:00N 34°05' E 134°42'816.0
2018-Feb-23 00:31N 34°08' E 134°51'816.0
2018-Feb-23 00:00N 34°11' E 134°60'714.9
2018-Feb-22 23:30N 34°13' E 135°09'0 0.1
2018-Feb-22 23:00N 34°13' E 135°09'3 6.4
2018-Feb-22 22:30N 34°12' E 135°05'714.8
2018-Feb-22 22:00N 34°10' E 134°57'714.5
2018-Feb-22 21:30N 34°06' E 134°49'1014.7
2018-Feb-22 20:51N 34°03' E 134°38'2 2.4
2018-Feb-22 19:57N 34°03' E 134°35'612.5
2018-Feb-22 19:30N 34°04' E 134°42'713.6
2018-Feb-22 19:00N 34°06' E 134°50'612.6
2018-Feb-22 18:31N 34°09' E 134°56'713.2
2018-Feb-22 18:01N 34°12' E 135°04'4 8.6
2018-Feb-22 17:31N 34°13' E 135°09'0 0.0
2018-Feb-22 17:01N 34°13' E 135°09'0 0.0
2018-Feb-22 16:31N 34°13' E 135°09'0 0.0
2018-Feb-22 16:00N 34°13' E 135°09'0 0.0
2018-Feb-22 15:31N 34°13' E 135°09'0 0.9
2018-Feb-22 15:01N 34°13' E 135°08'713.0
2018-Feb-22 14:31N 34°11' E 135°00'714.3
2018-Feb-22 14:01N 34°08' E 134°53'714.1
2018-Feb-22 13:31N 34°06' E 134°45'814.5
2018-Feb-22 12:59N 34°03' E 134°36'1 1.5
2018-Feb-22 12:20N 34°03' E 134°35'412.4
2018-Feb-22 12:00N 34°04' E 134°40'714.7
2018-Feb-22 11:30N 34°07' E 134°48'714.7
2018-Feb-22 11:01N 34°10' E 134°56'714.7
2018-Feb-22 10:31N 34°12' E 135°05'3 6.7
2018-Feb-22 10:00N 34°13' E 135°09'1 1.2
2018-Feb-22 09:31N 34°13' E 135°08'815.1
2018-Feb-22 09:01N 34°10' E 134°59'815.2
2018-Feb-22 08:30N 34°07' E 134°51'14 8.6
2018-Feb-22 06:55N 34°03' E 134°35'512.1
2018-Feb-22 06:30N 34°04' E 134°41'713.3
2018-Feb-22 06:00N 34°07' E 134°48'713.4
2018-Feb-22 05:31N 34°09' E 134°56'713.7
2018-Feb-22 05:01N 34°12' E 135°04'4 8.5
2018-Feb-22 04:30N 34°13' E 135°09'0 0.1
2018-Feb-22 04:00N 34°13' E 135°09'714.3
2018-Feb-22 03:31N 34°10' E 135°00'816.4
2018-Feb-22 03:00N 34°08' E 134°51'916.5
2018-Feb-22 02:27N 34°04' E 134°41'5 5.0
2018-Feb-22 01:31N 34°03' E 134°35'1 8.9
2018-Feb-22 01:27N 34°03' E 134°36'714.9
2018-Feb-22 01:00N 34°05' E 134°43'815.7
2018-Feb-22 00:31N 34°08' E 134°52'815.6
2018-Feb-22 00:00N 34°11' E 135°01'713.5
2018-Feb-21 23:30N 34°13' E 135°09'0 0.0
2018-Feb-21 23:01N 34°13' E 135°09'3 6.4
2018-Feb-21 22:30N 34°12' E 135°05'714.6
2018-Feb-21 22:01N 34°09' E 134°57'714.8
2018-Feb-21 21:31N 34°06' E 134°49'1015.0
2018-Feb-21 20:52N 34°03' E 134°38'2 2.1
2018-Feb-21 19:54N 34°03' E 134°35'512.0
2018-Feb-21 19:30N 34°04' E 134°41'713.6
2018-Feb-21 19:00N 34°07' E 134°48'713.7
2018-Feb-21 18:30N 34°09' E 134°56'713.8
2018-Feb-21 18:00N 34°12' E 135°04'4 8.3
2018-Feb-21 17:30N 34°13' E 135°09'0 0.0
2018-Feb-21 17:00N 34°13' E 135°09'0 0.0
2018-Feb-21 16:30N 34°13' E 135°09'0 0.0
2018-Feb-21 16:00N 34°13' E 135°09'0 0.0
2018-Feb-21 15:30N 34°13' E 135°09'0 0.8
2018-Feb-21 15:00N 34°13' E 135°08'713.4
2018-Feb-21 14:30N 34°11' E 135°00'714.9
2018-Feb-21 14:01N 34°08' E 134°52'714.7
2018-Feb-21 13:30N 34°05' E 134°44'713.9
2018-Feb-21 13:00N 34°03' E 134°36'1 1.1
2018-Feb-21 12:21N 34°03' E 134°35'411.9
2018-Feb-21 12:00N 34°04' E 134°40'714.8
2018-Feb-21 11:31N 34°07' E 134°48'815.0
2018-Feb-21 11:00N 34°10' E 134°57'714.7
2018-Feb-21 10:31N 34°12' E 135°05'3 6.4
2018-Feb-21 10:00N 34°13' E 135°09'0 0.7
2018-Feb-21 09:31N 34°13' E 135°08'815.2
2018-Feb-21 09:00N 34°10' E 134°60'816.2
2018-Feb-21 08:30N 34°07' E 134°51'1115.8
2018-Feb-21 07:47N 34°03' E 134°38'1 1.5
2018-Feb-21 06:47N 34°03' E 134°36'413.5
2018-Feb-21 06:30N 34°04' E 134°40'714.8
2018-Feb-21 06:00N 34°07' E 134°48'714.7
2018-Feb-21 05:31N 34°11' E 134°56'713.4
2018-Feb-21 05:00N 34°12' E 135°04'4 8.1
2018-Feb-21 04:30N 34°13' E 135°09'0 0.1
2018-Feb-21 04:00N 34°13' E 135°09'714.0
2018-Feb-21 03:31N 34°11' E 135°01'816.5
2018-Feb-21 03:00N 34°08' E 134°51'1414.7
2018-Feb-21 02:02N 34°03' E 134°35'0 0.1
2018-Feb-21 01:32N 34°03' E 134°35'1 9.4
2018-Feb-21 01:28N 34°03' E 134°36'714.3
2018-Feb-21 00:59N 34°05' E 134°44'715.5
2018-Feb-21 00:31N 34°08' E 134°52'815.0
2018-Feb-21 00:00N 34°11' E 135°00'714.2
2018-Feb-20 23:30N 34°13' E 135°09'0 0.0
2018-Feb-20 23:00N 34°13' E 135°09'3 5.1
2018-Feb-20 22:31N 34°13' E 135°06'815.2
2018-Feb-20 22:01N 34°10' E 134°57'815.3
2018-Feb-20 21:30N 34°07' E 134°49'815.4
2018-Feb-20 21:00N 34°04' E 134°40'4 3.7
2018-Feb-20 19:56N 34°03' E 134°35'511.9
2018-Feb-20 19:30N 34°04' E 134°41'613.1
2018-Feb-20 19:00N 34°07' E 134°48'713.6
2018-Feb-20 18:30N 34°09' E 134°56'713.5
2018-Feb-20 18:00N 34°12' E 135°04'4 8.6
2018-Feb-20 17:31N 34°13' E 135°09'0 0.0
2018-Feb-20 17:00N 34°13' E 135°09'0 0.0
2018-Feb-20 16:30N 34°13' E 135°09'0 0.0
2018-Feb-20 16:01N 34°13' E 135°09'0 0.0
2018-Feb-20 15:30N 34°13' E 135°09'1 1.0
2018-Feb-20 15:01N 34°13' E 135°08'713.2
2018-Feb-20 14:30N 34°11' E 135°00'714.2
2018-Feb-20 14:00N 34°08' E 134°52'714.0
2018-Feb-20 13:29N 34°05' E 134°44'714.3
2018-Feb-20 12:59N 34°03' E 134°36'1 1.4
2018-Feb-20 12:21N 34°03' E 134°35'412.5
2018-Feb-20 11:59N 34°04' E 134°40'715.1
2018-Feb-20 11:30N 34°07' E 134°48'714.8
2018-Feb-20 11:01N 34°10' E 134°57'714.1
2018-Feb-20 10:31N 34°12' E 135°05'3 6.6
2018-Feb-20 10:00N 34°13' E 135°09'0 0.9
2018-Feb-20 09:30N 34°13' E 135°08'815.1
2018-Feb-20 09:00N 34°11' E 134°59'815.7
2018-Feb-20 08:30N 34°07' E 134°51'1115.3
2018-Feb-20 07:48N 34°03' E 134°39'3 3.3
2018-Feb-20 06:56N 34°03' E 134°35'511.8
2018-Feb-20 06:30N 34°04' E 134°41'713.3
2018-Feb-20 06:00N 34°07' E 134°49'613.0
2018-Feb-20 05:31N 34°09' E 134°56'713.8
2018-Feb-20 05:01N 34°12' E 135°04'4 8.6
2018-Feb-20 04:30N 34°13' E 135°09'0 0.1
2018-Feb-20 04:01N 34°13' E 135°09'714.3
2018-Feb-20 03:31N 34°11' E 135°00'815.8
2018-Feb-20 03:00N 34°08' E 134°51'916.0
2018-Feb-20 02:27N 34°04' E 134°42'5 4.9
2018-Feb-20 01:28N 34°03' E 134°36'714.6
2018-Feb-20 01:00N 34°06' E 134°43'815.4
2018-Feb-20 00:31N 34°09' E 134°52'815.2
2018-Feb-20 00:01N 34°11' E 135°00'714.1
2018-Feb-19 23:31N 34°13' E 135°09'0 0.0
2018-Feb-19 23:00N 34°13' E 135°09'3 5.8
2018-Feb-19 22:31N 34°13' E 135°05'815.2
2018-Feb-19 22:00N 34°09' E 134°57'714.9
2018-Feb-19 21:31N 34°07' E 134°49'914.9
2018-Feb-19 20:53N 34°03' E 134°38'2 2.5
2018-Feb-19 19:56N 34°03' E 134°35'511.6
2018-Feb-19 19:30N 34°04' E 134°41'712.8
2018-Feb-19 19:00N 34°06' E 134°48'713.9
2018-Feb-19 18:31N 34°09' E 134°56'714.0
2018-Feb-19 18:00N 34°12' E 135°04'4 8.6
2018-Feb-19 17:30N 34°13' E 135°09'0 0.0
2018-Feb-19 17:00N 34°13' E 135°09'0 0.0
2018-Feb-19 16:30N 34°13' E 135°09'0 0.0
2018-Feb-19 16:00N 34°13' E 135°09'0 0.0
2018-Feb-19 15:30N 34°13' E 135°09'0 0.8
2018-Feb-19 15:00N 34°13' E 135°08'713.8
2018-Feb-19 14:30N 34°11' E 135°00'714.4
2018-Feb-19 14:00N 34°08' E 134°52'714.3
2018-Feb-19 13:30N 34°05' E 134°44'714.2
2018-Feb-19 13:00N 34°03' E 134°36'1 1.3
2018-Feb-19 12:21N 34°03' E 134°35'411.8
2018-Feb-19 12:00N 34°04' E 134°40'815.0
2018-Feb-19 11:29N 34°07' E 134°49'714.9
2018-Feb-19 11:00N 34°09' E 134°57'714.6
2018-Feb-19 10:30N 34°12' E 135°05'3 6.5
2018-Feb-19 10:01N 34°13' E 135°09'0 0.5
2018-Feb-19 09:31N 34°13' E 135°08'815.6
2018-Feb-19 09:01N 34°10' E 134°59'816.3
2018-Feb-19 08:31N 34°07' E 134°50'816.3
2018-Feb-19 08:00N 34°04' E 134°41'4 3.6
2018-Feb-19 06:45N 34°03' E 134°36'313.4
2018-Feb-19 06:30N 34°04' E 134°40'714.7
2018-Feb-19 06:00N 34°07' E 134°48'714.6
2018-Feb-19 05:30N 34°10' E 134°56'714.3
2018-Feb-19 05:00N 34°12' E 135°04'4 7.9
2018-Feb-19 04:31N 34°13' E 135°09'0 0.1
2018-Feb-19 04:00N 34°13' E 135°09'713.7
2018-Feb-19 03:30N 34°11' E 135°01'816.8
2018-Feb-19 03:00N 34°08' E 134°51'1017.1
2018-Feb-19 02:25N 34°05' E 134°40'4 4.2
2018-Feb-19 01:30N 34°03' E 134°35'714.0
2018-Feb-19 01:01N 34°05' E 134°43'815.6
2018-Feb-19 00:30N 34°08' E 134°52'815.4
2018-Feb-19 00:00N 34°12' E 135°00'714.1
2018-Feb-18 23:30N 34°13' E 135°09'0 0.0
2018-Feb-18 23:00N 34°13' E 135°09'3 6.3
2018-Feb-18 22:31N 34°13' E 135°05'714.6
2018-Feb-18 22:01N 34°10' E 134°57'714.7
2018-Feb-18 21:30N 34°07' E 134°48'814.6
2018-Feb-18 20:56N 34°04' E 134°39'3 3.1
2018-Feb-18 19:50N 34°03' E 134°35'412.2
2018-Feb-18 19:30N 34°04' E 134°40'714.1
2018-Feb-18 19:00N 34°07' E 134°48'714.4
2018-Feb-18 18:31N 34°10' E 134°56'714.0
2018-Feb-18 18:01N 34°12' E 135°04'4 8.5
2018-Feb-18 17:31N 34°13' E 135°09'0 0.0
2018-Feb-18 17:01N 34°13' E 135°09'0 0.0
2018-Feb-18 16:31N 34°13' E 135°09'0 0.0
2018-Feb-18 16:01N 34°13' E 135°09'0 0.0
2018-Feb-18 15:30N 34°13' E 135°09'1 1.5
2018-Feb-18 15:01N 34°13' E 135°08'713.9
2018-Feb-18 14:31N 34°11' E 134°60'713.9
2018-Feb-18 14:00N 34°08' E 134°52'713.9
2018-Feb-18 13:30N 34°05' E 134°44'713.9
2018-Feb-18 13:00N 34°03' E 134°36'1 1.4
2018-Feb-18 12:20N 34°03' E 134°35'411.9
2018-Feb-18 12:00N 34°04' E 134°40'714.9
2018-Feb-18 11:30N 34°07' E 134°48'815.1
2018-Feb-18 11:00N 34°10' E 134°57'714.9
2018-Feb-18 10:30N 34°12' E 135°05'3 6.1
2018-Feb-18 10:00N 34°13' E 135°09'0 0.1
2018-Feb-18 09:30N 34°13' E 135°09'713.7
2018-Feb-18 09:00N 34°11' E 135°01'816.7
2018-Feb-18 08:30N 34°08' E 134°51'1316.1
2018-Feb-18 07:40N 34°03' E 134°36'1 1.1
2018-Feb-18 06:50N 34°03' E 134°35'411.8
2018-Feb-18 06:30N 34°04' E 134°40'714.1
2018-Feb-18 06:00N 34°06' E 134°47'714.4
2018-Feb-18 05:30N 34°09' E 134°55'714.4
2018-Feb-18 05:00N 34°12' E 135°04'4 8.5
2018-Feb-18 04:30N 34°13' E 135°09'0 0.1
2018-Feb-18 04:00N 34°13' E 135°09'713.6
2018-Feb-18 03:30N 34°11' E 135°01'816.1
2018-Feb-18 03:01N 34°08' E 134°52'816.4
2018-Feb-18 02:30N 34°05' E 134°42'6 6.3
2018-Feb-18 01:32N 34°03' E 134°35'0 7.6
2018-Feb-18 01:30N 34°03' E 134°35'714.4
2018-Feb-18 01:00N 34°05' E 134°44'815.8
2018-Feb-18 00:30N 34°08' E 134°52'815.4
2018-Feb-18 00:00N 34°11' E 135°01'713.4
2018-Feb-17 23:30N 34°13' E 135°09'0 0.0
2018-Feb-17 23:00N 34°13' E 135°09'4 7.9
2018-Feb-17 22:30N 34°12' E 135°04'713.7
2018-Feb-17 22:00N 34°09' E 134°56'814.2
2018-Feb-17 21:29N 34°07' E 134°48'1114.1
2018-Feb-17 20:44N 34°03' E 134°36'1 1.0
2018-Feb-17 19:57N 34°03' E 134°35'511.5
2018-Feb-17 19:30N 34°04' E 134°41'612.9
2018-Feb-17 19:00N 34°07' E 134°48'713.5
2018-Feb-17 18:30N 34°09' E 134°56'713.6
2018-Feb-17 18:00N 34°12' E 135°04'4 8.8
2018-Feb-17 17:31N 34°13' E 135°09'0 0.0
2018-Feb-17 17:01N 34°13' E 135°09'0 0.0
2018-Feb-17 16:31N 34°13' E 135°09'0 0.0
2018-Feb-17 16:01N 34°13' E 135°09'0 0.0
2018-Feb-17 15:31N 34°13' E 135°09'1 1.1
2018-Feb-17 15:01N 34°13' E 135°08'713.9
2018-Feb-17 14:30N 34°11' E 134°60'714.1
2018-Feb-17 14:00N 34°08' E 134°52'713.9
2018-Feb-17 13:30N 34°06' E 134°44'713.9
2018-Feb-17 13:00N 34°03' E 134°36'1 1.6
2018-Feb-17 12:20N 34°03' E 134°35'411.7
2018-Feb-17 12:00N 34°04' E 134°40'714.6
2018-Feb-17 11:31N 34°07' E 134°48'815.1
2018-Feb-17 11:01N 34°10' E 134°56'714.9
2018-Feb-17 10:31N 34°12' E 135°05'3 6.8
2018-Feb-17 10:00N 34°13' E 135°09'0 0.1
2018-Feb-17 09:30N 34°13' E 135°09'714.3
2018-Feb-17 09:00N 34°11' E 135°00'816.1
2018-Feb-17 08:30N 34°07' E 134°52'815.9
2018-Feb-17 07:59N 34°04' E 134°42'6 5.6
2018-Feb-17 06:55N 34°03' E 134°35'511.8
2018-Feb-17 06:30N 34°04' E 134°41'713.6
2018-Feb-17 06:01N 34°06' E 134°49'713.2
2018-Feb-17 05:30N 34°09' E 134°56'714.1
2018-Feb-17 05:00N 34°12' E 135°04'4 8.4
2018-Feb-17 04:30N 34°13' E 135°09'0 0.1
2018-Feb-17 04:00N 34°13' E 135°09'613.0
2018-Feb-17 03:30N 34°11' E 135°01'816.8
2018-Feb-17 03:01N 34°08' E 134°51'1116.9
2018-Feb-17 02:20N 34°04' E 134°39'3 4.0
2018-Feb-17 01:31N 34°03' E 134°35'1 8.6
2018-Feb-17 01:27N 34°03' E 134°36'715.2
2018-Feb-17 00:59N 34°05' E 134°44'715.7
2018-Feb-17 00:30N 34°09' E 134°52'715.1
2018-Feb-17 00:00N 34°11' E 135°01'713.7
2018-Feb-16 23:30N 34°13' E 135°09'0 0.0
2018-Feb-16 23:00N 34°13' E 135°09'3 6.0
2018-Feb-16 22:30N 34°13' E 135°05'715.0
2018-Feb-16 22:01N 34°10' E 134°57'815.3
2018-Feb-16 21:30N 34°06' E 134°48'1114.9
2018-Feb-16 20:47N 34°03' E 134°36'1 1.8
2018-Feb-16 20:14N 34°03' E 134°35'0 0.5
2018-Feb-16 19:56N 34°03' E 134°35'511.7
2018-Feb-16 19:29N 34°04' E 134°41'613.4
2018-Feb-16 19:00N 34°06' E 134°49'713.6
2018-Feb-16 18:31N 34°09' E 134°56'713.7
2018-Feb-16 18:00N 34°12' E 135°04'4 8.4
2018-Feb-16 17:30N 34°13' E 135°09'0 0.0
2018-Feb-16 17:00N 34°13' E 135°09'0 0.0
2018-Feb-16 16:30N 34°13' E 135°09'0 0.0
2018-Feb-16 16:00N 34°13' E 135°09'0 0.0
2018-Feb-16 15:30N 34°13' E 135°09'0 0.7
2018-Feb-16 15:00N 34°13' E 135°08'713.7
2018-Feb-16 14:30N 34°10' E 135°00'714.3
2018-Feb-16 14:00N 34°08' E 134°52'714.5
2018-Feb-16 13:30N 34°05' E 134°44'714.3
2018-Feb-16 13:00N 34°03' E 134°36'1 1.0
2018-Feb-16 12:20N 34°03' E 134°35'412.3
2018-Feb-16 12:00N 34°04' E 134°40'715.1
2018-Feb-16 11:30N 34°06' E 134°49'815.2
2018-Feb-16 11:00N 34°08' E 134°57'815.1
2018-Feb-16 10:30N 34°12' E 135°05'3 6.1
2018-Feb-16 10:00N 34°13' E 135°09'0 0.5
2018-Feb-16 09:30N 34°13' E 135°08'714.8
2018-Feb-16 09:00N 34°11' E 134°60'816.1
2018-Feb-16 08:30N 34°07' E 134°51'816.1
2018-Feb-16 08:00N 34°04' E 134°42'6 7.3
2018-Feb-16 07:14N 34°03' E 134°35'1 1.4
2018-Feb-16 06:47N 34°03' E 134°36'312.3
2018-Feb-16 06:30N 34°04' E 134°40'714.3
2018-Feb-16 06:00N 34°07' E 134°47'714.6
2018-Feb-16 05:30N 34°10' E 134°56'714.2
2018-Feb-16 05:00N 34°12' E 135°04'4 8.3
2018-Feb-16 04:30N 34°13' E 135°09'0 0.6
2018-Feb-16 04:00N 34°13' E 135°08'815.7
2018-Feb-16 03:30N 34°08' E 135°01'816.2
2018-Feb-16 03:00N 34°07' E 134°51'816.4
2018-Feb-16 02:30N 34°04' E 134°42'6 6.0
2018-Feb-16 01:33N 34°03' E 134°35'1 6.3
2018-Feb-16 01:28N 34°03' E 134°36'714.3
2018-Feb-16 01:00N 34°05' E 134°43'815.6
2018-Feb-16 00:30N 34°08' E 134°52'815.4
2018-Feb-16 00:00N 34°11' E 135°00'714.0
2018-Feb-15 23:30N 34°13' E 135°09'0 0.0
2018-Feb-15 23:00N 34°13' E 135°09'3 5.7
2018-Feb-15 22:30N 34°13' E 135°05'715.0
2018-Feb-15 22:00N 34°09' E 134°57'815.0
2018-Feb-15 21:30N 34°07' E 134°49'1014.9
2018-Feb-15 20:48N 34°03' E 134°37'1 1.6
2018-Feb-15 19:51N 34°03' E 134°35'410.9
2018-Feb-15 19:30N 34°04' E 134°40'714.0
2018-Feb-15 19:00N 34°06' E 134°47'714.5
2018-Feb-15 18:31N 34°09' E 134°56'714.4
2018-Feb-15 18:01N 34°12' E 135°03'4 8.8
2018-Feb-15 17:30N 34°13' E 135°09'0 0.0
2018-Feb-15 17:00N 34°13' E 135°09'0 0.0
2018-Feb-15 16:30N 34°13' E 135°09'0 0.0
2018-Feb-15 16:00N 34°13' E 135°09'0 0.0
2018-Feb-15 15:30N 34°13' E 135°09'0 0.1
2018-Feb-15 15:01N 34°13' E 135°09'612.8
2018-Feb-15 14:30N 34°11' E 135°01'714.7
2018-Feb-15 14:00N 34°08' E 134°53'814.8
2018-Feb-15 13:29N 34°05' E 134°44'714.9
2018-Feb-15 13:00N 34°03' E 134°36'1 1.5
2018-Feb-15 12:23N 34°03' E 134°35'411.1
2018-Feb-15 12:00N 34°04' E 134°40'815.2
2018-Feb-15 11:30N 34°07' E 134°49'815.3
2018-Feb-15 11:01N 34°11' E 134°56'714.1
2018-Feb-15 10:30N 34°12' E 135°05'3 6.5
2018-Feb-15 10:00N 34°13' E 135°09'0 0.3
2018-Feb-15 09:30N 34°13' E 135°08'815.1
2018-Feb-15 09:00N 34°10' E 135°00'815.8
2018-Feb-15 08:30N 34°08' E 134°51'1315.9
2018-Feb-15 07:40N 34°03' E 134°36'1 1.1
2018-Feb-15 06:50N 34°03' E 134°35'411.3
2018-Feb-15 06:29N 34°04' E 134°40'714.3
2018-Feb-15 06:01N 34°06' E 134°48'714.3
2018-Feb-15 05:30N 34°08' E 134°56'714.5
2018-Feb-15 05:01N 34°12' E 135°04'4 8.7
2018-Feb-15 04:31N 34°13' E 135°09'0 0.2
2018-Feb-15 04:01N 34°13' E 135°08'815.1
2018-Feb-15 03:30N 34°11' E 134°60'815.9
2018-Feb-15 03:00N 34°07' E 134°51'916.0
2018-Feb-15 02:25N 34°04' E 134°41'5 5.0
2018-Feb-15 01:31N 34°03' E 134°35'1 9.7
2018-Feb-15 01:27N 34°03' E 134°36'614.6
2018-Feb-15 01:00N 34°05' E 134°43'815.3
2018-Feb-15 00:31N 34°08' E 134°52'815.0
2018-Feb-15 00:00N 34°11' E 135°00'714.7
2018-Feb-14 23:31N 34°13' E 135°09'0 0.0
2018-Feb-14 23:01N 34°13' E 135°09'2 5.0
2018-Feb-14 22:31N 34°13' E 135°06'713.9
2018-Feb-14 22:01N 34°11' E 134°58'815.4
2018-Feb-14 21:30N 34°07' E 134°49'1015.2
2018-Feb-14 20:50N 34°03' E 134°38'2 2.4
2018-Feb-14 19:55N 34°03' E 134°35'512.1
2018-Feb-14 19:30N 34°04' E 134°41'713.4
2018-Feb-14 19:00N 34°07' E 134°48'713.6
2018-Feb-14 18:30N 34°10' E 134°56'713.4
2018-Feb-14 18:00N 34°12' E 135°04'4 8.6
2018-Feb-14 17:30N 34°13' E 135°09'0 0.0
2018-Feb-14 17:00N 34°13' E 135°09'0 0.0
2018-Feb-14 16:30N 34°13' E 135°09'0 0.0
2018-Feb-14 16:00N 34°13' E 135°09'0 0.0
2018-Feb-14 15:30N 34°13' E 135°09'1 1.2
2018-Feb-14 15:00N 34°13' E 135°08'713.5
2018-Feb-14 14:30N 34°10' E 135°00'713.9
2018-Feb-14 14:00N 34°08' E 134°53'714.3
2018-Feb-14 13:30N 34°05' E 134°44'714.5
2018-Feb-14 13:00N 34°03' E 134°36'1 1.7
2018-Feb-14 12:25N 34°03' E 134°35'511.2
2018-Feb-14 12:00N 34°04' E 134°40'714.9
2018-Feb-14 11:30N 34°07' E 134°49'714.6
2018-Feb-14 11:01N 34°10' E 134°57'714.1
2018-Feb-14 10:30N 34°12' E 135°05'  
Track history (hours):
 
Tides and Currents Weather Stations Pressure Air Temp Water Temp Dewpoint Dewpoint Depression Visibility Wind Speed Wind Dir Waves Ship Positions

Ferry Katsuragi

Last reported at 2018-Feb-24 10:00 UTC. Time now 2018-Feb-24 10:12 UTC.
Position N 34°13' E 135°09'.

Length 108 m; draft 4 m.

Type: Passenger vessel. MMSI: 431301245.

Date/timePositionNaut miles runAvg speedWind from/ knotsBaromVisibWave heightAir tempDewpointWater temp
2018-Feb-24 10:00N 34°13' E 135°09'0 0.1
2018-Feb-24 09:31N 34°13' E 135°09'714.1
2018-Feb-24 09:00N 34°11' E 135°00'916.7
2018-Feb-24 08:30N 34°08' E 134°51'1016.8
2018-Feb-24 07:55N 34°04' E 134°40'3 3.0
2018-Feb-24 06:46N 34°03' E 134°36'413.5
2018-Feb-24 06:29N 34°04' E 134°40'714.2
2018-Feb-24 06:00N 34°07' E 134°48'714.4
2018-Feb-24 05:30N 34°10' E 134°56'714.0
2018-Feb-24 05:01N 34°12' E 135°04'4 8.1
2018-Feb-24 04:30N 34°13' E 135°09'0 0.1
2018-Feb-24 04:01N 34°13' E 135°09'714.0
2018-Feb-24 03:30N 34°11' E 135°00'816.7
2018-Feb-24 03:00N 34°08' E 134°51'1316.4
2018-Feb-24 02:13N 34°03' E 134°37'1 1.7
2018-Feb-24 01:25N 34°03' E 134°35'614.0
2018-Feb-24 01:00N 34°05' E 134°42'816.0
2018-Feb-24 00:30N 34°08' E 134°51'816.1
2018-Feb-24 00:00N 34°11' E 134°60'815.2
2018-Feb-23 23:30N 34°13' E 135°09'0 0.0
2018-Feb-23 23:00N 34°13' E 135°09'3 6.6
2018-Feb-23 22:31N 34°12' E 135°05'714.4
2018-Feb-23 22:01N 34°09' E 134°57'814.7
2018-Feb-23 21:30N 34°06' E 134°48'814.8
2018-Feb-23 20:58N 34°04' E 134°39'4 3.4
2018-Feb-23 19:53N 34°03' E 134°35'511.8
2018-Feb-23 19:30N 34°04' E 134°40'713.6
2018-Feb-23 19:00N 34°07' E 134°48'713.7
2018-Feb-23 18:30N 34°09' E 134°56'714.1
2018-Feb-23 18:01N 34°12' E 135°03'4 8.8
2018-Feb-23 17:30N 34°13' E 135°09'0 0.0
2018-Feb-23 17:01N 34°13' E 135°09'0 0.0
2018-Feb-23 16:30N 34°13' E 135°09'0 0.0
2018-Feb-23 16:00N 34°13' E 135°09'0 0.0
2018-Feb-23 15:30N 34°13' E 135°09'0 0.8
2018-Feb-23 15:01N 34°13' E 135°08'713.6
2018-Feb-23 14:30N 34°11' E 135°00'714.2
2018-Feb-23 14:00N 34°08' E 134°52'714.4
2018-Feb-23 13:29N 34°05' E 134°44'8 6.7
2018-Feb-23 12:22N 34°03' E 134°35'512.7
2018-Feb-23 12:00N 34°04' E 134°41'714.5
2018-Feb-23 11:30N 34°07' E 134°49'714.8
2018-Feb-23 11:01N 34°10' E 134°57'714.1
2018-Feb-23 10:31N 34°12' E 135°05'3 6.6
2018-Feb-23 10:00N 34°13' E 135°09'0 0.1
2018-Feb-23 09:30N 34°13' E 135°09'714.8
2018-Feb-23 09:00N 34°10' E 135°00'816.2
2018-Feb-23 08:30N 34°06' E 134°52'1216.0
2018-Feb-23 07:46N 34°03' E 134°38'2 2.4
2018-Feb-23 06:53N 34°03' E 134°35'412.1
2018-Feb-23 06:30N 34°04' E 134°41'714.1
2018-Feb-23 06:00N 34°07' E 134°48'714.1
2018-Feb-23 05:31N 34°09' E 134°56'713.8
2018-Feb-23 05:01N 34°11' E 135°04'4 8.2
2018-Feb-23 04:31N 34°13' E 135°09'0 0.1
2018-Feb-23 04:00N 34°13' E 135°09'714.3
2018-Feb-23 03:30N 34°10' E 135°01'917.3
2018-Feb-23 03:00N 34°07' E 134°51'13 8.1
2018-Feb-23 01:23N 34°03' E 134°36'614.9
2018-Feb-23 01:00N 34°05' E 134°42'816.0
2018-Feb-23 00:31N 34°08' E 134°51'816.0
2018-Feb-23 00:00N 34°11' E 134°60'714.9
2018-Feb-22 23:30N 34°13' E 135°09'0 0.1
2018-Feb-22 23:00N 34°13' E 135°09'3 6.4
2018-Feb-22 22:30N 34°12' E 135°05'714.8
2018-Feb-22 22:00N 34°10' E 134°57'714.5
2018-Feb-22 21:30N 34°06' E 134°49'1014.7
2018-Feb-22 20:51N 34°03' E 134°38'2 2.4
2018-Feb-22 19:57N 34°03' E 134°35'612.5
2018-Feb-22 19:30N 34°04' E 134°42'713.6
2018-Feb-22 19:00N 34°06' E 134°50'612.6
2018-Feb-22 18:31N 34°09' E 134°56'713.2
2018-Feb-22 18:01N 34°12' E 135°04'4 8.6
2018-Feb-22 17:31N 34°13' E 135°09'0 0.0
2018-Feb-22 17:01N 34°13' E 135°09'0 0.0
2018-Feb-22 16:31N 34°13' E 135°09'0 0.0
2018-Feb-22 16:00N 34°13' E 135°09'0 0.0
2018-Feb-22 15:31N 34°13' E 135°09'0 0.9
2018-Feb-22 15:01N 34°13' E 135°08'713.0
2018-Feb-22 14:31N 34°11' E 135°00'714.3
2018-Feb-22 14:01N 34°08' E 134°53'714.1
2018-Feb-22 13:31N 34°06' E 134°45'814.5
2018-Feb-22 12:59N 34°03' E 134°36'1 1.5
2018-Feb-22 12:20N 34°03' E 134°35'412.4
2018-Feb-22 12:00N 34°04' E 134°40'714.7
2018-Feb-22 11:30N 34°07' E 134°48'714.7
2018-Feb-22 11:01N 34°10' E 134°56'714.7
2018-Feb-22 10:31N 34°12' E 135°05'3 6.7
2018-Feb-22 10:00N 34°13' E 135°09'1 1.2
2018-Feb-22 09:31N 34°13' E 135°08'815.1
2018-Feb-22 09:01N 34°10' E 134°59'815.2
2018-Feb-22 08:30N 34°07' E 134°51'14 8.6
2018-Feb-22 06:55N 34°03' E 134°35'512.1
2018-Feb-22 06:30N 34°04' E 134°41'713.3
2018-Feb-22 06:00N 34°07' E 134°48'713.4
2018-Feb-22 05:31N 34°09' E 134°56'713.7
2018-Feb-22 05:01N 34°12' E 135°04'4 8.5
2018-Feb-22 04:30N 34°13' E 135°09'0 0.1
2018-Feb-22 04:00N 34°13' E 135°09'714.3
2018-Feb-22 03:31N 34°10' E 135°00'816.4
2018-Feb-22 03:00N 34°08' E 134°51'916.5
2018-Feb-22 02:27N 34°04' E 134°41'5 5.0
2018-Feb-22 01:31N 34°03' E 134°35'1 8.9
2018-Feb-22 01:27N 34°03' E 134°36'714.9
2018-Feb-22 01:00N 34°05' E 134°43'815.7
2018-Feb-22 00:31N 34°08' E 134°52'815.6
2018-Feb-22 00:00N 34°11' E 135°01'713.5
2018-Feb-21 23:30N 34°13' E 135°09'0 0.0
2018-Feb-21 23:01N 34°13' E 135°09'3 6.4
2018-Feb-21 22:30N 34°12' E 135°05'714.6
2018-Feb-21 22:01N 34°09' E 134°57'714.8
2018-Feb-21 21:31N 34°06' E 134°49'1015.0
2018-Feb-21 20:52N 34°03' E 134°38'2 2.1
2018-Feb-21 19:54N 34°03' E 134°35'512.0
2018-Feb-21 19:30N 34°04' E 134°41'713.6
2018-Feb-21 19:00N 34°07' E 134°48'713.7
2018-Feb-21 18:30N 34°09' E 134°56'713.8
2018-Feb-21 18:00N 34°12' E 135°04'4 8.3
2018-Feb-21 17:30N 34°13' E 135°09'0 0.0
2018-Feb-21 17:00N 34°13' E 135°09'0 0.0
2018-Feb-21 16:30N 34°13' E 135°09'0 0.0
2018-Feb-21 16:00N 34°13' E 135°09'0 0.0
2018-Feb-21 15:30N 34°13' E 135°09'0 0.8
2018-Feb-21 15:00N 34°13' E 135°08'713.4
2018-Feb-21 14:30N 34°11' E 135°00'714.9
2018-Feb-21 14:01N 34°08' E 134°52'714.7
2018-Feb-21 13:30N 34°05' E 134°44'713.9
2018-Feb-21 13:00N 34°03' E 134°36'1 1.1
2018-Feb-21 12:21N 34°03' E 134°35'411.9
2018-Feb-21 12:00N 34°04' E 134°40'714.8
2018-Feb-21 11:31N 34°07' E 134°48'815.0
2018-Feb-21 11:00N 34°10' E 134°57'714.7
2018-Feb-21 10:31N 34°12' E 135°05'3 6.4
2018-Feb-21 10:00N 34°13' E 135°09'0 0.7
2018-Feb-21 09:31N 34°13' E 135°08'815.2
2018-Feb-21 09:00N 34°10' E 134°60'816.2
2018-Feb-21 08:30N 34°07' E 134°51'1115.8
2018-Feb-21 07:47N 34°03' E 134°38'1 1.5
2018-Feb-21 06:47N 34°03' E 134°36'413.5
2018-Feb-21 06:30N 34°04' E 134°40'714.8
2018-Feb-21 06:00N 34°07' E 134°48'714.7
2018-Feb-21 05:31N 34°11' E 134°56'713.4
2018-Feb-21 05:00N 34°12' E 135°04'4 8.1
2018-Feb-21 04:30N 34°13' E 135°09'0 0.1
2018-Feb-21 04:00N 34°13' E 135°09'714.0
2018-Feb-21 03:31N 34°11' E 135°01'816.5
2018-Feb-21 03:00N 34°08' E 134°51'1414.7
2018-Feb-21 02:02N 34°03' E 134°35'0 0.1
2018-Feb-21 01:32N 34°03' E 134°35'1 9.4
2018-Feb-21 01:28N 34°03' E 134°36'714.3
2018-Feb-21 00:59N 34°05' E 134°44'715.5
2018-Feb-21 00:31N 34°08' E 134°52'815.0
2018-Feb-21 00:00N 34°11' E 135°00'714.2
2018-Feb-20 23:30N 34°13' E 135°09'0 0.0
2018-Feb-20 23:00N 34°13' E 135°09'3 5.1
2018-Feb-20 22:31N 34°13' E 135°06'815.2
2018-Feb-20 22:01N 34°10' E 134°57'815.3
2018-Feb-20 21:30N 34°07' E 134°49'815.4
2018-Feb-20 21:00N 34°04' E 134°40'4 3.7
2018-Feb-20 19:56N 34°03' E 134°35'511.9
2018-Feb-20 19:30N 34°04' E 134°41'613.1
2018-Feb-20 19:00N 34°07' E 134°48'713.6
2018-Feb-20 18:30N 34°09' E 134°56'713.5
2018-Feb-20 18:00N 34°12' E 135°04'4 8.6
2018-Feb-20 17:31N 34°13' E 135°09'0 0.0
2018-Feb-20 17:00N 34°13' E 135°09'0 0.0
2018-Feb-20 16:30N 34°13' E 135°09'0 0.0
2018-Feb-20 16:01N 34°13' E 135°09'0 0.0
2018-Feb-20 15:30N 34°13' E 135°09'1 1.0
2018-Feb-20 15:01N 34°13' E 135°08'713.2
2018-Feb-20 14:30N 34°11' E 135°00'714.2
2018-Feb-20 14:00N 34°08' E 134°52'714.0
2018-Feb-20 13:29N 34°05' E 134°44'714.3
2018-Feb-20 12:59N 34°03' E 134°36'1 1.4
2018-Feb-20 12:21N 34°03' E 134°35'412.5
2018-Feb-20 11:59N 34°04' E 134°40'715.1
2018-Feb-20 11:30N 34°07' E 134°48'714.8
2018-Feb-20 11:01N 34°10' E 134°57'714.1
2018-Feb-20 10:31N 34°12' E 135°05'3 6.6
2018-Feb-20 10:00N 34°13' E 135°09'0 0.9
2018-Feb-20 09:30N 34°13' E 135°08'815.1
2018-Feb-20 09:00N 34°11' E 134°59'815.7
2018-Feb-20 08:30N 34°07' E 134°51'1115.3
2018-Feb-20 07:48N 34°03' E 134°39'3 3.3
2018-Feb-20 06:56N 34°03' E 134°35'511.8
2018-Feb-20 06:30N 34°04' E 134°41'713.3
2018-Feb-20 06:00N 34°07' E 134°49'613.0
2018-Feb-20 05:31N 34°09' E 134°56'713.8
2018-Feb-20 05:01N 34°12' E 135°04'4 8.6
2018-Feb-20 04:30N 34°13' E 135°09'0 0.1
2018-Feb-20 04:01N 34°13' E 135°09'714.3
2018-Feb-20 03:31N 34°11' E 135°00'815.8
2018-Feb-20 03:00N 34°08' E 134°51'916.0
2018-Feb-20 02:27N 34°04' E 134°42'5 4.9
2018-Feb-20 01:28N 34°03' E 134°36'714.6
2018-Feb-20 01:00N 34°06' E 134°43'815.4
2018-Feb-20 00:31N 34°09' E 134°52'815.2
2018-Feb-20 00:01N 34°11' E 135°00'714.1
2018-Feb-19 23:31N 34°13' E 135°09'0 0.0
2018-Feb-19 23:00N 34°13' E 135°09'3 5.8
2018-Feb-19 22:31N 34°13' E 135°05'815.2
2018-Feb-19 22:00N 34°09' E 134°57'714.9
2018-Feb-19 21:31N 34°07' E 134°49'914.9
2018-Feb-19 20:53N 34°03' E 134°38'2 2.5
2018-Feb-19 19:56N 34°03' E 134°35'511.6
2018-Feb-19 19:30N 34°04' E 134°41'712.8
2018-Feb-19 19:00N 34°06' E 134°48'713.9
2018-Feb-19 18:31N 34°09' E 134°56'714.0
2018-Feb-19 18:00N 34°12' E 135°04'4 8.6
2018-Feb-19 17:30N 34°13' E 135°09'0 0.0
2018-Feb-19 17:00N 34°13' E 135°09'0 0.0
2018-Feb-19 16:30N 34°13' E 135°09'0 0.0
2018-Feb-19 16:00N 34°13' E 135°09'0 0.0
2018-Feb-19 15:30N 34°13' E 135°09'0 0.8
2018-Feb-19 15:00N 34°13' E 135°08'713.8
2018-Feb-19 14:30N 34°11' E 135°00'714.4
2018-Feb-19 14:00N 34°08' E 134°52'714.3
2018-Feb-19 13:30N 34°05' E 134°44'714.2
2018-Feb-19 13:00N 34°03' E 134°36'1 1.3
2018-Feb-19 12:21N 34°03' E 134°35'411.8
2018-Feb-19 12:00N 34°04' E 134°40'815.0
2018-Feb-19 11:29N 34°07' E 134°49'714.9
2018-Feb-19 11:00N 34°09' E 134°57'714.6
2018-Feb-19 10:30N 34°12' E 135°05'3 6.5
2018-Feb-19 10:01N 34°13' E 135°09'0 0.5
2018-Feb-19 09:31N 34°13' E 135°08'815.6
2018-Feb-19 09:01N 34°10' E 134°59'816.3
2018-Feb-19 08:31N 34°07' E 134°50'816.3
2018-Feb-19 08:00N 34°04' E 134°41'4 3.6
2018-Feb-19 06:45N 34°03' E 134°36'313.4
2018-Feb-19 06:30N 34°04' E 134°40'714.7
2018-Feb-19 06:00N 34°07' E 134°48'714.6
2018-Feb-19 05:30N 34°10' E 134°56'714.3
2018-Feb-19 05:00N 34°12' E 135°04'4 7.9
2018-Feb-19 04:31N 34°13' E 135°09'0 0.1
2018-Feb-19 04:00N 34°13' E 135°09'713.7
2018-Feb-19 03:30N 34°11' E 135°01'816.8
2018-Feb-19 03:00N 34°08' E 134°51'1017.1
2018-Feb-19 02:25N 34°05' E 134°40'4 4.2
2018-Feb-19 01:30N 34°03' E 134°35'714.0
2018-Feb-19 01:01N 34°05' E 134°43'815.6
2018-Feb-19 00:30N 34°08' E 134°52'815.4
2018-Feb-19 00:00N 34°12' E 135°00'714.1
2018-Feb-18 23:30N 34°13' E 135°09'0 0.0
2018-Feb-18 23:00N 34°13' E 135°09'3 6.3
2018-Feb-18 22:31N 34°13' E 135°05'714.6
2018-Feb-18 22:01N 34°10' E 134°57'714.7
2018-Feb-18 21:30N 34°07' E 134°48'814.6
2018-Feb-18 20:56N 34°04' E 134°39'3 3.1
2018-Feb-18 19:50N 34°03' E 134°35'412.2
2018-Feb-18 19:30N 34°04' E 134°40'714.1
2018-Feb-18 19:00N 34°07' E 134°48'714.4
2018-Feb-18 18:31N 34°10' E 134°56'714.0
2018-Feb-18 18:01N 34°12' E 135°04'4 8.5
2018-Feb-18 17:31N 34°13' E 135°09'0 0.0
2018-Feb-18 17:01N 34°13' E 135°09'0 0.0
2018-Feb-18 16:31N 34°13' E 135°09'0 0.0
2018-Feb-18 16:01N 34°13' E 135°09'0 0.0
2018-Feb-18 15:30N 34°13' E 135°09'1 1.5
2018-Feb-18 15:01N 34°13' E 135°08'713.9
2018-Feb-18 14:31N 34°11' E 134°60'713.9
2018-Feb-18 14:00N 34°08' E 134°52'713.9
2018-Feb-18 13:30N 34°05' E 134°44'713.9
2018-Feb-18 13:00N 34°03' E 134°36'1 1.4
2018-Feb-18 12:20N 34°03' E 134°35'411.9
2018-Feb-18 12:00N 34°04' E 134°40'714.9
2018-Feb-18 11:30N 34°07' E 134°48'815.1
2018-Feb-18 11:00N 34°10' E 134°57'714.9
2018-Feb-18 10:30N 34°12' E 135°05'3 6.1
2018-Feb-18 10:00N 34°13' E 135°09'0 0.1
2018-Feb-18 09:30N 34°13' E 135°09'713.7
2018-Feb-18 09:00N 34°11' E 135°01'816.7
2018-Feb-18 08:30N 34°08' E 134°51'1316.1
2018-Feb-18 07:40N 34°03' E 134°36'1 1.1
2018-Feb-18 06:50N 34°03' E 134°35'411.8
2018-Feb-18 06:30N 34°04' E 134°40'714.1
2018-Feb-18 06:00N 34°06' E 134°47'714.4
2018-Feb-18 05:30N 34°09' E 134°55'714.4
2018-Feb-18 05:00N 34°12' E 135°04'4 8.5
2018-Feb-18 04:30N 34°13' E 135°09'0 0.1
2018-Feb-18 04:00N 34°13' E 135°09'713.6
2018-Feb-18 03:30N 34°11' E 135°01'816.1
2018-Feb-18 03:01N 34°08' E 134°52'816.4
2018-Feb-18 02:30N 34°05' E 134°42'6 6.3
2018-Feb-18 01:32N 34°03' E 134°35'0 7.6
2018-Feb-18 01:30N 34°03' E 134°35'714.4
2018-Feb-18 01:00N 34°05' E 134°44'815.8
2018-Feb-18 00:30N 34°08' E 134°52'815.4
2018-Feb-18 00:00N 34°11' E 135°01'713.4
2018-Feb-17 23:30N 34°13' E 135°09'0 0.0
2018-Feb-17 23:00N 34°13' E 135°09'4 7.9
2018-Feb-17 22:30N 34°12' E 135°04'713.7
2018-Feb-17 22:00N 34°09' E 134°56'814.2
2018-Feb-17 21:29N 34°07' E 134°48'1114.1
2018-Feb-17 20:44N 34°03' E 134°36'1 1.0
2018-Feb-17 19:57N 34°03' E 134°35'511.5
2018-Feb-17 19:30N 34°04' E 134°41'612.9
2018-Feb-17 19:00N 34°07' E 134°48'713.5
2018-Feb-17 18:30N 34°09' E 134°56'713.6
2018-Feb-17 18:00N 34°12' E 135°04'4 8.8
2018-Feb-17 17:31N 34°13' E 135°09'0 0.0
2018-Feb-17 17:01N 34°13' E 135°09'0 0.0
2018-Feb-17 16:31N 34°13' E 135°09'0 0.0
2018-Feb-17 16:01N 34°13' E 135°09'0 0.0
2018-Feb-17 15:31N 34°13' E 135°09'1 1.1
2018-Feb-17 15:01N 34°13' E 135°08'713.9
2018-Feb-17 14:30N 34°11' E 134°60'714.1
2018-Feb-17 14:00N 34°08' E 134°52'713.9
2018-Feb-17 13:30N 34°06' E 134°44'713.9
2018-Feb-17 13:00N 34°03' E 134°36'1 1.6
2018-Feb-17 12:20N 34°03' E 134°35'411.7
2018-Feb-17 12:00N 34°04' E 134°40'714.6
2018-Feb-17 11:31N 34°07' E 134°48'815.1
2018-Feb-17 11:01N 34°10' E 134°56'714.9
2018-Feb-17 10:31N 34°12' E 135°05'3 6.8
2018-Feb-17 10:00N 34°13' E 135°09'0 0.1
2018-Feb-17 09:30N 34°13' E 135°09'714.3
2018-Feb-17 09:00N 34°11' E 135°00'816.1
2018-Feb-17 08:30N 34°07' E 134°52'815.9
2018-Feb-17 07:59N 34°04' E 134°42'6 5.6
2018-Feb-17 06:55N 34°03' E 134°35'511.8
2018-Feb-17 06:30N 34°04' E 134°41'713.6
2018-Feb-17 06:01N 34°06' E 134°49'713.2
2018-Feb-17 05:30N 34°09' E 134°56'714.1
2018-Feb-17 05:00N 34°12' E 135°04'4 8.4
2018-Feb-17 04:30N 34°13' E 135°09'0 0.1
2018-Feb-17 04:00N 34°13' E 135°09'613.0
2018-Feb-17 03:30N 34°11' E 135°01'816.8
2018-Feb-17 03:01N 34°08' E 134°51'1116.9
2018-Feb-17 02:20N 34°04' E 134°39'3 4.0
2018-Feb-17 01:31N 34°03' E 134°35'1 8.6
2018-Feb-17 01:27N 34°03' E 134°36'715.2
2018-Feb-17 00:59N 34°05' E 134°44'715.7
2018-Feb-17 00:30N 34°09' E 134°52'715.1
2018-Feb-17 00:00N 34°11' E 135°01'713.7
2018-Feb-16 23:30N 34°13' E 135°09'0 0.0
2018-Feb-16 23:00N 34°13' E 135°09'3 6.0
2018-Feb-16 22:30N 34°13' E 135°05'715.0
2018-Feb-16 22:01N 34°10' E 134°57'815.3
2018-Feb-16 21:30N 34°06' E 134°48'1114.9
2018-Feb-16 20:47N 34°03' E 134°36'1 1.8
2018-Feb-16 20:14N 34°03' E 134°35'0 0.5
2018-Feb-16 19:56N 34°03' E 134°35'511.7
2018-Feb-16 19:29N 34°04' E 134°41'613.4
2018-Feb-16 19:00N 34°06' E 134°49'713.6
2018-Feb-16 18:31N 34°09' E 134°56'713.7
2018-Feb-16 18:00N 34°12' E 135°04'4 8.4
2018-Feb-16 17:30N 34°13' E 135°09'0 0.0
2018-Feb-16 17:00N 34°13' E 135°09'0 0.0
2018-Feb-16 16:30N 34°13' E 135°09'0 0.0
2018-Feb-16 16:00N 34°13' E 135°09'0 0.0
2018-Feb-16 15:30N 34°13' E 135°09'0 0.7
2018-Feb-16 15:00N 34°13' E 135°08'713.7
2018-Feb-16 14:30N 34°10' E 135°00'714.3
2018-Feb-16 14:00N 34°08' E 134°52'714.5
2018-Feb-16 13:30N 34°05' E 134°44'714.3
2018-Feb-16 13:00N 34°03' E 134°36'1 1.0
2018-Feb-16 12:20N 34°03' E 134°35'412.3
2018-Feb-16 12:00N 34°04' E 134°40'715.1
2018-Feb-16 11:30N 34°06' E 134°49'815.2
2018-Feb-16 11:00N 34°08' E 134°57'815.1
2018-Feb-16 10:30N 34°12' E 135°05'3 6.1
2018-Feb-16 10:00N 34°13' E 135°09'0 0.5
2018-Feb-16 09:30N 34°13' E 135°08'714.8
2018-Feb-16 09:00N 34°11' E 134°60'816.1
2018-Feb-16 08:30N 34°07' E 134°51'816.1
2018-Feb-16 08:00N 34°04' E 134°42'6 7.3
2018-Feb-16 07:14N 34°03' E 134°35'1 1.4
2018-Feb-16 06:47N 34°03' E 134°36'312.3
2018-Feb-16 06:30N 34°04' E 134°40'714.3
2018-Feb-16 06:00N 34°07' E 134°47'714.6
2018-Feb-16 05:30N 34°10' E 134°56'714.2
2018-Feb-16 05:00N 34°12' E 135°04'4 8.3
2018-Feb-16 04:30N 34°13' E 135°09'0 0.6
2018-Feb-16 04:00N 34°13' E 135°08'815.7
2018-Feb-16 03:30N 34°08' E 135°01'816.2
2018-Feb-16 03:00N 34°07' E 134°51'816.4
2018-Feb-16 02:30N 34°04' E 134°42'6 6.0
2018-Feb-16 01:33N 34°03' E 134°35'1 6.3
2018-Feb-16 01:28N 34°03' E 134°36'714.3
2018-Feb-16 01:00N 34°05' E 134°43'815.6
2018-Feb-16 00:30N 34°08' E 134°52'815.4
2018-Feb-16 00:00N 34°11' E 135°00'714.0
2018-Feb-15 23:30N 34°13' E 135°09'0 0.0
2018-Feb-15 23:00N 34°13' E 135°09'3 5.7
2018-Feb-15 22:30N 34°13' E 135°05'715.0
2018-Feb-15 22:00N 34°09' E 134°57'815.0
2018-Feb-15 21:30N 34°07' E 134°49'1014.9
2018-Feb-15 20:48N 34°03' E 134°37'1 1.6
2018-Feb-15 19:51N 34°03' E 134°35'410.9
2018-Feb-15 19:30N 34°04' E 134°40'714.0
2018-Feb-15 19:00N 34°06' E 134°47'714.5
2018-Feb-15 18:31N 34°09' E 134°56'714.4
2018-Feb-15 18:01N 34°12' E 135°03'4 8.8
2018-Feb-15 17:30N 34°13' E 135°09'0 0.0
2018-Feb-15 17:00N 34°13' E 135°09'0 0.0
2018-Feb-15 16:30N 34°13' E 135°09'0 0.0
2018-Feb-15 16:00N 34°13' E 135°09'0 0.0
2018-Feb-15 15:30N 34°13' E 135°09'0 0.1
2018-Feb-15 15:01N 34°13' E 135°09'612.8
2018-Feb-15 14:30N 34°11' E 135°01'714.7
2018-Feb-15 14:00N 34°08' E 134°53'814.8
2018-Feb-15 13:29N 34°05' E 134°44'714.9
2018-Feb-15 13:00N 34°03' E 134°36'1 1.5
2018-Feb-15 12:23N 34°03' E 134°35'411.1
2018-Feb-15 12:00N 34°04' E 134°40'815.2
2018-Feb-15 11:30N 34°07' E 134°49'815.3
2018-Feb-15 11:01N 34°11' E 134°56'714.1
2018-Feb-15 10:30N 34°12' E 135°05'3 6.5
2018-Feb-15 10:00N 34°13' E 135°09'0 0.3
2018-Feb-15 09:30N 34°13' E 135°08'815.1
2018-Feb-15 09:00N 34°10' E 135°00'815.8
2018-Feb-15 08:30N 34°08' E 134°51'1315.9
2018-Feb-15 07:40N 34°03' E 134°36'1 1.1
2018-Feb-15 06:50N 34°03' E 134°35'411.3
2018-Feb-15 06:29N 34°04' E 134°40'714.3
2018-Feb-15 06:01N 34°06' E 134°48'714.3
2018-Feb-15 05:30N 34°08' E 134°56'714.5
2018-Feb-15 05:01N 34°12' E 135°04'4 8.7
2018-Feb-15 04:31N 34°13' E 135°09'0 0.2
2018-Feb-15 04:01N 34°13' E 135°08'815.1
2018-Feb-15 03:30N 34°11' E 134°60'815.9
2018-Feb-15 03:00N 34°07' E 134°51'916.0
2018-Feb-15 02:25N 34°04' E 134°41'5 5.0
2018-Feb-15 01:31N 34°03' E 134°35'1 9.7
2018-Feb-15 01:27N 34°03' E 134°36'614.6
2018-Feb-15 01:00N 34°05' E 134°43'815.3
2018-Feb-15 00:31N 34°08' E 134°52'815.0
2018-Feb-15 00:00N 34°11' E 135°00'714.7
2018-Feb-14 23:31N 34°13' E 135°09'0 0.0
2018-Feb-14 23:01N 34°13' E 135°09'2 5.0
2018-Feb-14 22:31N 34°13' E 135°06'713.9
2018-Feb-14 22:01N 34°11' E 134°58'815.4
2018-Feb-14 21:30N 34°07' E 134°49'1015.2
2018-Feb-14 20:50N 34°03' E 134°38'2 2.4
2018-Feb-14 19:55N 34°03' E 134°35'512.1
2018-Feb-14 19:30N 34°04' E 134°41'713.4
2018-Feb-14 19:00N 34°07' E 134°48'713.6
2018-Feb-14 18:30N 34°10' E 134°56'713.4
2018-Feb-14 18:00N 34°12' E 135°04'4 8.6
2018-Feb-14 17:30N 34°13' E 135°09'0 0.0
2018-Feb-14 17:00N 34°13' E 135°09'0 0.0
2018-Feb-14 16:30N 34°13' E 135°09'0 0.0
2018-Feb-14 16:00N 34°13' E 135°09'0 0.0
2018-Feb-14 15:30N 34°13' E 135°09'1 1.2
2018-Feb-14 15:00N 34°13' E 135°08'713.5
2018-Feb-14 14:30N 34°10' E 135°00'713.9
2018-Feb-14 14:00N 34°08' E 134°53'714.3
2018-Feb-14 13:30N 34°05' E 134°44'714.5
2018-Feb-14 13:00N 34°03' E 134°36'1 1.7
2018-Feb-14 12:25N 34°03' E 134°35'511.2
2018-Feb-14 12:00N 34°04' E 134°40'714.9
2018-Feb-14 11:30N 34°07' E 134°49'714.6
2018-Feb-14 11:01N 34°10' E 134°57'714.1
2018-Feb-14 10:30N 34°12' E 135°05'  

Dump ship's entire track history